createdAt,value
2019-03-19T00:00:31.090Z,1019.55
2019-03-19T00:01:31.086Z,1019.57
2019-03-19T00:02:31.069Z,1019.50
2019-03-19T00:03:31.068Z,1019.50
2019-03-19T00:04:31.048Z,1019.48
2019-03-19T00:05:31.039Z,1019.53
2019-03-19T00:06:31.027Z,1019.46
2019-03-19T00:07:31.016Z,1019.44
2019-03-19T00:08:31.005Z,1019.43
2019-03-19T00:09:31.004Z,1019.44
2019-03-19T00:10:30.984Z,1019.41
2019-03-19T00:11:30.991Z,1019.43
2019-03-19T00:12:30.962Z,1019.46
2019-03-19T00:13:30.964Z,1019.45
2019-03-19T00:14:30.941Z,1019.42
2019-03-19T00:15:30.945Z,1019.46
2019-03-19T00:16:30.919Z,1019.47
2019-03-19T00:17:30.908Z,1019.47
2019-03-19T00:18:30.899Z,1019.47
2019-03-19T00:19:30.892Z,1019.46
2019-03-19T00:20:30.878Z,1019.51
2019-03-19T00:21:30.877Z,1019.51
2019-03-19T00:22:30.873Z,1019.55
2019-03-19T00:23:30.852Z,1019.51
2019-03-19T00:24:30.836Z,1019.50
2019-03-19T00:25:30.825Z,1019.52
2019-03-19T00:26:30.818Z,1019.52
2019-03-19T00:27:30.818Z,1019.46
2019-03-19T00:28:30.795Z,1019.49
2019-03-19T00:29:30.784Z,1019.52
2019-03-19T00:30:30.776Z,1019.54
2019-03-19T00:31:30.764Z,1019.55
2019-03-19T00:32:30.757Z,1019.60
2019-03-19T00:33:30.755Z,1019.60
2019-03-19T00:34:30.731Z,1019.66
2019-03-19T00:35:30.721Z,1019.55
2019-03-19T00:36:30.710Z,1019.59
2019-03-19T00:37:30.699Z,1019.62
2019-03-19T00:38:30.690Z,1019.61
2019-03-19T00:39:30.692Z,1019.68
2019-03-19T00:40:30.668Z,1019.68
2019-03-19T00:41:30.657Z,1019.68
2019-03-19T00:42:30.647Z,1019.74
2019-03-19T00:43:30.635Z,1019.66
2019-03-19T00:44:30.631Z,1019.72
2019-03-19T00:45:30.629Z,1019.66
2019-03-19T00:46:30.602Z,1019.58
2019-03-19T00:47:30.601Z,1019.55
2019-03-19T00:48:30.584Z,1019.60
2019-03-19T00:49:30.572Z,1019.57
2019-03-19T00:50:30.564Z,1019.56
2019-03-19T00:51:30.563Z,1019.56
2019-03-19T00:52:30.541Z,1019.55
2019-03-19T00:53:30.534Z,1019.62
2019-03-19T00:54:30.518Z,1019.61
2019-03-19T00:55:40.279Z,1019.65
2019-03-19T00:56:31.508Z,1019.66
2019-03-19T00:57:30.487Z,1019.67
2019-03-19T00:58:30.478Z,1019.66
2019-03-19T00:59:30.467Z,1019.71
2019-03-19T01:00:30.465Z,1019.72
2019-03-19T01:01:30.445Z,1019.77
2019-03-19T01:02:30.451Z,1019.75
2019-03-19T01:03:30.426Z,1019.82
2019-03-19T01:04:30.417Z,1019.83
2019-03-19T01:05:30.412Z,1019.86
2019-03-19T01:06:30.399Z,1019.86
2019-03-19T01:07:30.385Z,1019.82
2019-03-19T01:08:30.385Z,1019.80
2019-03-19T01:09:30.365Z,1019.81
2019-03-19T01:10:30.358Z,1019.78
2019-03-19T01:11:30.344Z,1019.82
2019-03-19T01:12:30.334Z,1019.76
2019-03-19T01:13:30.328Z,1019.77
2019-03-19T01:14:30.321Z,1019.75
2019-03-19T01:15:30.301Z,1019.74
2019-03-19T01:16:30.292Z,1019.80
2019-03-19T01:17:30.282Z,1019.85
2019-03-19T01:18:30.271Z,1019.84
2019-03-19T01:19:30.260Z,1019.89
2019-03-19T01:20:30.260Z,1019.95
2019-03-19T01:21:30.241Z,1019.98
2019-03-19T01:22:30.229Z,1019.99
2019-03-19T01:23:30.235Z,1020.02
2019-03-19T01:24:30.208Z,1020.05
2019-03-19T01:25:30.207Z,1020.05
2019-03-19T01:26:30.200Z,1020.04
2019-03-19T01:27:30.177Z,1020.03
2019-03-19T01:28:30.167Z,1020.08
2019-03-19T01:29:30.156Z,1020.02
2019-03-19T01:30:30.146Z,1020.02
2019-03-19T01:31:30.138Z,1019.96
2019-03-19T01:32:30.136Z,1019.95
2019-03-19T01:33:30.115Z,1019.96
2019-03-19T01:34:30.105Z,1019.98
2019-03-19T01:35:30.095Z,1019.92
2019-03-19T01:36:30.083Z,1019.93
2019-03-19T01:37:30.075Z,1019.90
2019-03-19T01:38:30.075Z,1019.85
2019-03-19T01:39:30.052Z,1019.92
2019-03-19T01:40:30.046Z,1020.00
2019-03-19T01:41:30.031Z,1019.98
2019-03-19T01:42:30.021Z,1019.97
2019-03-19T01:43:30.014Z,1019.99
2019-03-19T01:44:30.017Z,1020.00
2019-03-19T01:45:29.990Z,1020.03
2019-03-19T01:46:29.980Z,1020.02
2019-03-19T01:47:29.976Z,1020.09
2019-03-19T01:48:29.959Z,1020.10
2019-03-19T01:49:29.949Z,1020.08
2019-03-19T01:50:29.958Z,1020.08
2019-03-19T01:51:29.929Z,1020.09
2019-03-19T01:52:29.920Z,1020.02
2019-03-19T01:53:29.907Z,1020.01
2019-03-19T01:54:29.900Z,1020.02
2019-03-19T01:55:29.888Z,1020.03
2019-03-19T01:56:29.891Z,1020.08
2019-03-19T01:57:29.867Z,1020.03
2019-03-19T01:58:29.863Z,1020.03
2019-03-19T01:59:29.863Z,1020.05
2019-03-19T02:00:29.868Z,1020.04
2019-03-19T02:01:29.843Z,1020.08
2019-03-19T02:02:29.827Z,1020.11
2019-03-19T02:03:29.807Z,1020.11
2019-03-19T02:04:29.794Z,1020.13
2019-03-19T02:05:29.783Z,1020.13
2019-03-19T02:06:29.774Z,1020.16
2019-03-19T02:07:29.765Z,1020.18
2019-03-19T02:08:29.769Z,1020.17
2019-03-19T02:09:29.747Z,1020.22
2019-03-19T02:10:29.739Z,1020.23
2019-03-19T02:11:29.721Z,1020.28
2019-03-19T02:12:29.711Z,1020.23
2019-03-19T02:13:29.704Z,1020.25
2019-03-19T02:14:29.700Z,1020.18
2019-03-19T02:15:29.679Z,1020.16
2019-03-19T02:16:29.668Z,1020.12
2019-03-19T02:17:29.659Z,1020.07
2019-03-19T02:18:29.651Z,1020.10
2019-03-19T02:19:29.638Z,1020.11
2019-03-19T02:20:29.638Z,1020.10
2019-03-19T02:21:29.617Z,1020.16
2019-03-19T02:22:29.606Z,1020.22
2019-03-19T02:23:29.596Z,1020.24
2019-03-19T02:24:29.600Z,1020.24
2019-03-19T02:25:29.575Z,1020.26
2019-03-19T02:26:29.578Z,1020.38
2019-03-19T02:27:29.568Z,1020.37
2019-03-19T02:28:29.544Z,1020.34
2019-03-19T02:29:29.535Z,1020.34
2019-03-19T02:30:29.620Z,1020.34
2019-03-19T02:31:29.512Z,1020.34
2019-03-19T02:32:29.512Z,1020.33
2019-03-19T02:33:29.493Z,1020.31
2019-03-19T02:34:29.485Z,1020.32
2019-03-19T02:35:29.471Z,1020.32
2019-03-19T02:36:29.489Z,1020.32
2019-03-19T02:37:29.461Z,1020.31
2019-03-19T02:38:29.457Z,1020.35
2019-03-19T02:39:29.433Z,1020.38
2019-03-19T02:40:29.421Z,1020.40
2019-03-19T02:41:29.411Z,1020.41
2019-03-19T02:42:29.410Z,1020.41
2019-03-19T02:43:29.398Z,1020.42
2019-03-19T02:44:29.395Z,1020.51
2019-03-19T02:45:29.370Z,1020.45
2019-03-19T02:46:29.362Z,1020.44
2019-03-19T02:47:29.348Z,1020.49
2019-03-19T02:48:29.336Z,1020.49
2019-03-19T02:49:29.332Z,1020.49
2019-03-19T02:50:29.327Z,1020.54
2019-03-19T02:51:29.309Z,1020.48
2019-03-19T02:52:29.295Z,1020.49
2019-03-19T02:53:29.699Z,1020.51
2019-03-19T02:54:29.279Z,1020.53
2019-03-19T02:55:29.264Z,1020.57
2019-03-19T02:56:33.305Z,1020.61
2019-03-19T02:57:29.242Z,1020.62
2019-03-19T02:58:29.236Z,1020.70
2019-03-19T02:59:29.223Z,1020.65
2019-03-19T03:00:29.220Z,1020.67
2019-03-19T03:01:29.204Z,1020.60
2019-03-19T03:02:29.201Z,1020.58
2019-03-19T03:03:29.185Z,1020.57
2019-03-19T03:04:29.173Z,1020.61
2019-03-19T03:05:29.159Z,1020.57
2019-03-19T03:06:29.157Z,1020.58
2019-03-19T03:07:29.139Z,1020.56
2019-03-19T03:08:29.140Z,1020.57
2019-03-19T03:09:29.118Z,1020.59
2019-03-19T03:10:29.114Z,1020.68
2019-03-19T03:11:29.101Z,1020.59
2019-03-19T03:12:29.086Z,1020.66
2019-03-19T03:13:29.076Z,1020.72
2019-03-19T03:14:29.078Z,1020.69
2019-03-19T03:15:29.071Z,1020.70
2019-03-19T03:16:29.050Z,1020.74
2019-03-19T03:17:29.039Z,1020.75
2019-03-19T03:18:29.025Z,1020.78
2019-03-19T03:19:29.013Z,1020.72
2019-03-19T03:20:29.013Z,1020.74
2019-03-19T03:21:28.992Z,1020.75
2019-03-19T03:22:28.984Z,1020.67
2019-03-19T03:23:28.973Z,1020.62
2019-03-19T03:24:28.962Z,1020.64
2019-03-19T03:25:28.953Z,1020.69
2019-03-19T03:26:28.951Z,1020.66
2019-03-19T03:27:28.934Z,1020.61
2019-03-19T03:28:28.919Z,1020.60
2019-03-19T03:29:28.921Z,1020.58
2019-03-19T03:30:28.920Z,1020.66
2019-03-19T03:31:28.889Z,1020.65
2019-03-19T03:32:28.888Z,1020.71
2019-03-19T03:33:28.869Z,1020.74
2019-03-19T03:34:28.858Z,1020.75
2019-03-19T03:35:28.846Z,1020.75
2019-03-19T03:36:28.846Z,1020.73
2019-03-19T03:37:28.829Z,1020.76
2019-03-19T03:38:28.831Z,1020.69
2019-03-19T03:39:28.820Z,1020.70
2019-03-19T03:40:28.794Z,1020.63
2019-03-19T03:41:28.785Z,1020.55
2019-03-19T03:42:28.775Z,1020.51
2019-03-19T03:43:28.764Z,1020.52
2019-03-19T03:44:28.771Z,1020.44
2019-03-19T03:45:28.747Z,1020.49
2019-03-19T03:46:28.735Z,1020.49
2019-03-19T03:47:28.723Z,1020.48
2019-03-19T03:48:28.712Z,1020.50
2019-03-19T03:49:28.703Z,1020.51
2019-03-19T03:50:28.701Z,1020.50
2019-03-19T03:51:28.695Z,1020.51
2019-03-19T03:52:28.670Z,1020.57
2019-03-19T03:53:28.678Z,1020.63
2019-03-19T03:54:28.685Z,1020.67
2019-03-19T03:55:31.091Z,1020.71
2019-03-19T03:56:28.640Z,1020.70
2019-03-19T03:57:28.618Z,1020.85
2019-03-19T03:58:28.609Z,1020.85
2019-03-19T03:59:28.598Z,1020.83
2019-03-19T04:00:28.659Z,1020.92
2019-03-19T04:01:28.578Z,1020.88
2019-03-19T04:02:28.583Z,1020.89
2019-03-19T04:03:28.575Z,1020.90
2019-03-19T04:04:28.545Z,1020.93
2019-03-19T04:05:28.534Z,1020.93
2019-03-19T04:06:28.524Z,1020.95
2019-03-19T04:07:28.514Z,1020.90
2019-03-19T04:08:28.524Z,1020.88
2019-03-19T04:09:28.492Z,1020.92
2019-03-19T04:10:28.482Z,1020.86
2019-03-19T04:11:28.476Z,1020.83
2019-03-19T04:12:28.462Z,1020.90
2019-03-19T04:13:28.452Z,1020.91
2019-03-19T04:14:28.451Z,1020.97
2019-03-19T04:15:28.431Z,1020.98
2019-03-19T04:16:28.518Z,1021.00
2019-03-19T04:17:28.413Z,1021.01
2019-03-19T04:18:28.399Z,1020.95
2019-03-19T04:19:28.389Z,1020.92
2019-03-19T04:20:28.397Z,1020.99
2019-03-19T04:21:28.370Z,1020.95
2019-03-19T04:22:28.357Z,1021.01
2019-03-19T04:23:28.347Z,1021.03
2019-03-19T04:24:28.337Z,1021.00
2019-03-19T04:25:28.327Z,1020.98
2019-03-19T04:26:28.370Z,1021.01
2019-03-19T04:27:28.304Z,1021.04
2019-03-19T04:28:28.294Z,1021.02
2019-03-19T04:29:28.292Z,1021.05
2019-03-19T04:30:28.278Z,1021.00
2019-03-19T04:31:28.264Z,1021.02
2019-03-19T04:32:28.262Z,1021.08
2019-03-19T04:33:28.239Z,1021.07
2019-03-19T04:34:28.229Z,1021.08
2019-03-19T04:35:28.224Z,1021.05
2019-03-19T04:36:28.210Z,1021.09
2019-03-19T04:37:28.227Z,1021.16
2019-03-19T04:38:28.197Z,1021.14
2019-03-19T04:39:28.176Z,1021.21
2019-03-19T04:40:28.166Z,1021.18
2019-03-19T04:41:28.155Z,1021.21
2019-03-19T04:42:28.143Z,1021.26
2019-03-19T04:43:28.133Z,1021.22
2019-03-19T04:44:28.142Z,1021.28
2019-03-19T04:45:28.111Z,1021.27
2019-03-19T04:46:28.147Z,1021.27
2019-03-19T04:47:28.091Z,1021.30
2019-03-19T04:48:28.079Z,1021.28
2019-03-19T04:49:28.076Z,1021.25
2019-03-19T04:50:28.068Z,1021.24
2019-03-19T04:51:28.050Z,1021.27
2019-03-19T04:52:28.036Z,1021.29
2019-03-19T04:53:28.041Z,1021.29
2019-03-19T04:54:28.015Z,1021.34
2019-03-19T04:55:28.004Z,1021.36
2019-03-19T04:56:28.010Z,1021.35
2019-03-19T04:57:27.989Z,1021.36
2019-03-19T04:58:27.975Z,1021.34
2019-03-19T04:59:27.961Z,1021.37
2019-03-19T05:00:27.950Z,1021.36
2019-03-19T05:01:27.940Z,1021.40
2019-03-19T05:02:27.939Z,1021.38
2019-03-19T05:03:27.918Z,1021.38
2019-03-19T05:04:27.907Z,1021.36
2019-03-19T05:05:27.897Z,1021.38
2019-03-19T05:06:27.887Z,1021.43
2019-03-19T05:07:27.880Z,1021.44
2019-03-19T05:08:27.878Z,1021.49
2019-03-19T05:09:27.864Z,1021.45
2019-03-19T05:10:27.845Z,1021.52
2019-03-19T05:11:27.833Z,1021.51
2019-03-19T05:12:27.822Z,1021.59
2019-03-19T05:13:27.811Z,1021.53
2019-03-19T05:14:27.811Z,1021.59
2019-03-19T05:15:27.792Z,1021.60
2019-03-19T05:16:27.782Z,1021.59
2019-03-19T05:17:27.770Z,1021.63
2019-03-19T05:18:27.758Z,1021.61
2019-03-19T05:19:27.748Z,1021.61
2019-03-19T05:20:27.749Z,1021.62
2019-03-19T05:21:27.726Z,1021.64
2019-03-19T05:22:27.716Z,1021.65
2019-03-19T05:23:27.705Z,1021.69
2019-03-19T05:24:27.696Z,1021.67
2019-03-19T05:25:27.689Z,1021.69
2019-03-19T05:26:27.743Z,1021.70
2019-03-19T05:27:37.078Z,1021.66
2019-03-19T05:28:28.652Z,1021.71
2019-03-19T05:29:27.642Z,1021.64
2019-03-19T05:30:27.632Z,1021.66
2019-03-19T05:31:27.620Z,1021.71
2019-03-19T05:32:27.622Z,1021.69
2019-03-19T05:33:27.600Z,1021.65
2019-03-19T05:34:27.588Z,1021.68
2019-03-19T05:35:27.586Z,1021.66
2019-03-19T05:36:27.569Z,1021.70
2019-03-19T05:37:27.556Z,1021.72
2019-03-19T05:38:27.560Z,1021.68
2019-03-19T05:39:27.536Z,1021.74
2019-03-19T05:40:27.525Z,1021.78
2019-03-19T05:41:27.516Z,1021.72
2019-03-19T05:42:27.505Z,1021.75
2019-03-19T05:43:27.494Z,1021.77
2019-03-19T05:44:27.495Z,1021.79
2019-03-19T05:45:27.472Z,1021.83
2019-03-19T05:46:27.462Z,1021.85
2019-03-19T05:47:36.835Z,1021.86
2019-03-19T05:48:28.439Z,1021.95
2019-03-19T05:49:27.431Z,1021.92
2019-03-19T05:50:27.430Z,1021.93
2019-03-19T05:51:27.409Z,1021.96
2019-03-19T05:52:27.398Z,1021.97
2019-03-19T05:53:27.388Z,1021.95
2019-03-19T05:54:27.376Z,1021.93
2019-03-19T05:55:27.366Z,1021.96
2019-03-19T05:56:27.372Z,1022.01
2019-03-19T05:57:27.345Z,1021.92
2019-03-19T05:58:27.338Z,1021.91
2019-03-19T05:59:27.325Z,1021.93
2019-03-19T06:00:27.313Z,1021.92
2019-03-19T06:01:27.302Z,1021.94
2019-03-19T06:02:27.304Z,1021.98
2019-03-19T06:03:27.281Z,1022.00
2019-03-19T06:04:27.272Z,1022.02
2019-03-19T06:05:27.260Z,1022.04
2019-03-19T06:06:27.248Z,1022.06
2019-03-19T06:07:27.255Z,1022.07
2019-03-19T06:08:27.239Z,1022.10
2019-03-19T06:09:27.217Z,1022.17
2019-03-19T06:10:27.206Z,1022.18
2019-03-19T06:11:27.200Z,1022.19
2019-03-19T06:12:27.195Z,1022.18
2019-03-19T06:13:27.175Z,1022.24
2019-03-19T06:14:27.225Z,1022.26
2019-03-19T06:15:27.155Z,1022.33
2019-03-19T06:16:27.145Z,1022.30
2019-03-19T06:17:27.149Z,1022.28
2019-03-19T06:18:35.098Z,1022.32
2019-03-19T06:19:28.123Z,1022.33
2019-03-19T06:20:27.105Z,1022.37
2019-03-19T06:21:27.092Z,1022.40
2019-03-19T06:22:27.082Z,1022.39
2019-03-19T06:23:27.070Z,1022.38
2019-03-19T06:24:27.060Z,1022.39
2019-03-19T06:25:27.097Z,1022.47
2019-03-19T06:26:27.041Z,1022.48
2019-03-19T06:27:27.028Z,1022.50
2019-03-19T06:28:27.018Z,1022.51
2019-03-19T06:29:27.007Z,1022.54
2019-03-19T06:30:26.996Z,1022.55
2019-03-19T06:31:26.995Z,1022.54
2019-03-19T06:32:26.974Z,1022.53
2019-03-19T06:33:26.963Z,1022.56
2019-03-19T06:34:26.957Z,1022.51
2019-03-19T06:35:26.944Z,1022.59
2019-03-19T06:36:26.935Z,1022.66
2019-03-19T06:37:26.931Z,1022.62
2019-03-19T06:38:26.911Z,1022.68
2019-03-19T06:39:26.901Z,1022.65
2019-03-19T06:40:26.889Z,1022.70
2019-03-19T06:41:26.879Z,1022.66
2019-03-19T06:42:26.867Z,1022.66
2019-03-19T06:43:26.869Z,1022.73
2019-03-19T06:44:26.846Z,1022.72
2019-03-19T06:45:26.836Z,1022.77
2019-03-19T06:46:26.826Z,1022.76
2019-03-19T06:47:26.815Z,1022.79
2019-03-19T06:48:26.815Z,1022.81
2019-03-19T06:49:26.807Z,1022.84
2019-03-19T06:50:28.110Z,1022.85
2019-03-19T06:51:26.771Z,1022.91
2019-03-19T06:52:26.760Z,1022.84
2019-03-19T06:53:26.751Z,1022.88
2019-03-19T06:54:26.746Z,1022.89
2019-03-19T06:55:26.742Z,1022.91
2019-03-19T06:56:26.718Z,1022.89
2019-03-19T06:57:26.706Z,1022.90
2019-03-19T06:58:26.698Z,1022.91
2019-03-19T06:59:26.686Z,1022.93
2019-03-19T07:00:26.676Z,1022.92
2019-03-19T07:01:26.674Z,1022.95
2019-03-19T07:02:26.657Z,1022.96
2019-03-19T07:03:26.648Z,1023.02
2019-03-19T07:04:26.634Z,1022.97
2019-03-19T07:05:26.621Z,1023.02
2019-03-19T07:06:26.611Z,1022.97
2019-03-19T07:07:26.610Z,1023.02
2019-03-19T07:08:26.637Z,1023.05
2019-03-19T07:09:26.587Z,1023.09
2019-03-19T07:10:26.567Z,1023.12
2019-03-19T07:11:26.559Z,1023.11
2019-03-19T07:12:26.546Z,1023.12
2019-03-19T07:13:26.546Z,1023.12
2019-03-19T07:14:26.524Z,1023.16
2019-03-19T07:15:26.512Z,1023.14
2019-03-19T07:16:26.502Z,1023.15
2019-03-19T07:17:26.492Z,1023.15
2019-03-19T07:18:26.483Z,1023.12
2019-03-19T07:19:26.482Z,1023.15
2019-03-19T07:20:26.466Z,1023.22
2019-03-19T07:21:26.454Z,1023.24
2019-03-19T07:22:26.437Z,1023.27
2019-03-19T07:23:26.426Z,1023.33
2019-03-19T07:24:26.421Z,1023.33
2019-03-19T07:25:26.421Z,1023.36
2019-03-19T07:26:26.396Z,1023.39
2019-03-19T07:27:26.382Z,1023.37
2019-03-19T07:28:26.373Z,1023.38
2019-03-19T07:29:26.361Z,1023.36
2019-03-19T07:30:26.353Z,1023.38
2019-03-19T07:31:30.835Z,1023.34
2019-03-19T07:32:26.328Z,1023.41
2019-03-19T07:33:26.318Z,1023.39
2019-03-19T07:34:26.310Z,1023.39
2019-03-19T07:35:26.297Z,1023.37
2019-03-19T07:36:26.284Z,1023.37
2019-03-19T07:37:26.284Z,1023.40
2019-03-19T07:38:26.262Z,1023.39
2019-03-19T07:39:26.252Z,1023.43
2019-03-19T07:40:26.248Z,1023.44
2019-03-19T07:41:26.233Z,1023.43
2019-03-19T07:42:26.219Z,1023.47
2019-03-19T07:43:26.232Z,1023.45
2019-03-19T07:44:26.198Z,1023.45
2019-03-19T07:45:26.193Z,1023.43
2019-03-19T07:46:26.174Z,1023.52
2019-03-19T07:47:26.167Z,1023.61
2019-03-19T07:48:26.155Z,1023.64
2019-03-19T07:49:26.152Z,1023.69
2019-03-19T07:50:26.131Z,1023.73
2019-03-19T07:51:26.120Z,1023.70
2019-03-19T07:52:26.108Z,1023.69
2019-03-19T07:53:26.099Z,1023.68
2019-03-19T07:54:26.086Z,1023.65
2019-03-19T07:55:26.086Z,1023.63
2019-03-19T07:56:26.068Z,1023.65
2019-03-19T07:57:26.054Z,1023.67
2019-03-19T07:58:35.724Z,1023.69
2019-03-19T07:59:27.032Z,1023.74
2019-03-19T08:00:26.021Z,1023.75
2019-03-19T08:01:26.022Z,1023.77
2019-03-19T08:02:26.001Z,1023.74
2019-03-19T08:03:25.988Z,1023.80
2019-03-19T08:04:25.981Z,1023.79
2019-03-19T08:05:33.102Z,1023.80
2019-03-19T08:06:26.968Z,1023.85
2019-03-19T08:07:25.944Z,1023.88
2019-03-19T08:08:25.933Z,1023.89
2019-03-19T08:09:25.974Z,1023.88
2019-03-19T08:10:25.915Z,1023.89
2019-03-19T08:11:25.909Z,1023.95
2019-03-19T08:12:25.901Z,1023.93
2019-03-19T08:13:25.884Z,1023.95
2019-03-19T08:14:25.867Z,1023.92
2019-03-19T08:15:25.859Z,1023.90
2019-03-19T08:16:27.617Z,1023.91
2019-03-19T08:17:25.837Z,1023.94
2019-03-19T08:18:25.877Z,1023.93
2019-03-19T08:19:25.819Z,1023.95
2019-03-19T08:20:25.802Z,1023.95
2019-03-19T08:21:25.793Z,1023.95
2019-03-19T08:22:25.780Z,1023.97
2019-03-19T08:23:25.771Z,1023.98
2019-03-19T08:24:25.776Z,1023.95
2019-03-19T08:25:25.748Z,1024.01
2019-03-19T08:26:25.736Z,1024.05
2019-03-19T08:27:25.725Z,1024.06
2019-03-19T08:28:25.714Z,1024.11
2019-03-19T08:29:25.704Z,1024.11
2019-03-19T08:30:25.705Z,1024.11
2019-03-19T08:31:25.681Z,1024.12
2019-03-19T08:32:25.671Z,1024.11
2019-03-19T08:33:25.660Z,1024.13
2019-03-19T08:34:25.653Z,1024.12
2019-03-19T08:35:25.639Z,1024.11
2019-03-19T08:36:25.638Z,1024.11
2019-03-19T08:37:25.619Z,1024.06
2019-03-19T08:38:26.534Z,1024.11
2019-03-19T08:39:25.623Z,1024.15
2019-03-19T08:40:25.585Z,1024.18
2019-03-19T08:41:25.574Z,1024.20
2019-03-19T08:42:25.574Z,1024.19
2019-03-19T08:43:25.568Z,1024.17
2019-03-19T08:44:27.970Z,1024.20
2019-03-19T08:45:25.531Z,1024.18
2019-03-19T08:46:25.524Z,1024.21
2019-03-19T08:47:25.511Z,1024.17
2019-03-19T08:48:25.516Z,1024.20
2019-03-19T08:49:25.489Z,1024.20
2019-03-19T08:50:25.480Z,1024.22
2019-03-19T08:51:25.466Z,1024.12
2019-03-19T08:52:25.456Z,1024.15
2019-03-19T08:53:25.445Z,1024.18
2019-03-19T08:54:25.459Z,1024.17
2019-03-19T08:55:25.461Z,1024.24
2019-03-19T08:56:25.413Z,1024.22
2019-03-19T08:57:25.402Z,1024.30
2019-03-19T08:58:25.391Z,1024.31
2019-03-19T08:59:25.403Z,1024.31
2019-03-19T09:00:25.382Z,1024.35
2019-03-19T09:01:25.359Z,1024.39
2019-03-19T09:02:25.347Z,1024.37
2019-03-19T09:03:25.338Z,1024.39
2019-03-19T09:04:25.326Z,1024.39
2019-03-19T09:05:25.317Z,1024.36
2019-03-19T09:06:25.315Z,1024.32
2019-03-19T09:07:25.293Z,1024.35
2019-03-19T09:08:25.285Z,1024.30
2019-03-19T09:09:25.273Z,1024.32
2019-03-19T09:10:25.260Z,1024.26
2019-03-19T09:11:25.250Z,1024.21
2019-03-19T09:12:25.251Z,1024.23
2019-03-19T09:13:25.228Z,1024.25
2019-03-19T09:14:25.217Z,1024.22
2019-03-19T09:15:25.212Z,1024.27
2019-03-19T09:16:25.196Z,1024.27
2019-03-19T09:17:25.186Z,1024.30
2019-03-19T09:18:25.184Z,1024.27
2019-03-19T09:19:25.163Z,1024.14
2019-03-19T09:20:25.154Z,1024.21
2019-03-19T09:21:25.142Z,1024.16
2019-03-19T09:22:29.607Z,1024.13
2019-03-19T09:23:25.120Z,1024.14
2019-03-19T09:24:25.126Z,1024.16
2019-03-19T09:25:25.099Z,1024.11
2019-03-19T09:26:25.089Z,1024.10
2019-03-19T09:27:25.077Z,1024.17
2019-03-19T09:28:25.067Z,1024.16
2019-03-19T09:29:25.523Z,1024.22
2019-03-19T09:30:25.055Z,1024.21
2019-03-19T09:31:25.034Z,1024.18
2019-03-19T09:32:25.023Z,1024.18
2019-03-19T09:33:25.037Z,1024.18
2019-03-19T09:34:25.007Z,1024.20
2019-03-19T09:35:26.312Z,1024.26
2019-03-19T09:36:25.009Z,1024.19
2019-03-19T09:37:24.967Z,1024.19
2019-03-19T09:38:24.958Z,1024.22
2019-03-19T09:39:24.959Z,1024.15
2019-03-19T09:40:24.934Z,1024.16
2019-03-19T09:41:24.923Z,1024.17
2019-03-19T09:42:24.934Z,1024.26
2019-03-19T09:43:24.901Z,1024.21
2019-03-19T09:44:24.890Z,1024.25
2019-03-19T09:45:24.880Z,1024.23
2019-03-19T09:46:24.868Z,1024.26
2019-03-19T09:47:24.859Z,1024.27
2019-03-19T09:48:24.859Z,1024.30
2019-03-19T09:49:24.883Z,1024.34
2019-03-19T09:50:24.830Z,1024.41
2019-03-19T09:51:24.812Z,1024.39
2019-03-19T09:52:24.801Z,1024.39
2019-03-19T09:53:24.791Z,1024.38
2019-03-19T09:54:24.790Z,1024.36
2019-03-19T09:55:24.774Z,1024.31
2019-03-19T09:56:24.760Z,1024.32
2019-03-19T09:57:24.747Z,1024.36
2019-03-19T09:58:24.740Z,1024.40
2019-03-19T09:59:27.309Z,1024.39
2019-03-19T10:00:24.724Z,1024.36
2019-03-19T10:01:24.703Z,1024.38
2019-03-19T10:02:24.693Z,1024.41
2019-03-19T10:03:24.681Z,1024.34
2019-03-19T10:04:24.671Z,1024.38
2019-03-19T10:05:24.660Z,1024.35
2019-03-19T10:06:24.659Z,1024.44
2019-03-19T10:07:24.638Z,1024.36
2019-03-19T10:08:24.630Z,1024.35
2019-03-19T10:09:24.617Z,1024.44
2019-03-19T10:10:24.648Z,1024.37
2019-03-19T10:11:24.595Z,1024.46
2019-03-19T10:12:24.597Z,1024.43
2019-03-19T10:13:24.573Z,1024.46
2019-03-19T10:14:24.563Z,1024.40
2019-03-19T10:15:24.555Z,1024.48
2019-03-19T10:16:24.544Z,1024.43
2019-03-19T10:17:24.536Z,1024.49
2019-03-19T10:18:24.529Z,1024.51
2019-03-19T10:19:24.507Z,1024.49
2019-03-19T10:20:24.497Z,1024.33
2019-03-19T10:21:24.487Z,1024.35
2019-03-19T10:22:24.483Z,1024.30
2019-03-19T10:23:24.464Z,1024.38
2019-03-19T10:24:24.464Z,1024.36
2019-03-19T10:25:24.443Z,1024.45
2019-03-19T10:26:24.436Z,1024.44
2019-03-19T10:27:24.422Z,1024.38
2019-03-19T10:28:24.409Z,1024.40
2019-03-19T10:29:24.399Z,1024.45
2019-03-19T10:30:24.412Z,1024.49
2019-03-19T10:31:24.377Z,1024.50
2019-03-19T10:32:24.365Z,1024.51
2019-03-19T10:33:24.357Z,1024.51
2019-03-19T10:34:24.346Z,1024.58
2019-03-19T10:35:24.333Z,1024.55
2019-03-19T10:36:24.334Z,1024.54
2019-03-19T10:37:24.313Z,1024.53
2019-03-19T10:38:24.303Z,1024.54
2019-03-19T10:39:24.290Z,1024.54
2019-03-19T10:40:24.283Z,1024.51
2019-03-19T10:41:24.269Z,1024.49
2019-03-19T10:42:24.271Z,1024.50
2019-03-19T10:43:24.250Z,1024.50
2019-03-19T10:44:24.237Z,1024.48
2019-03-19T10:45:24.230Z,1024.50
2019-03-19T10:46:24.214Z,1024.50
2019-03-19T10:47:24.204Z,1024.51
2019-03-19T10:48:24.211Z,1024.56
2019-03-19T10:49:24.183Z,1024.58
2019-03-19T10:50:24.175Z,1024.61
2019-03-19T10:51:24.160Z,1024.63
2019-03-19T10:52:24.148Z,1024.60
2019-03-19T10:53:24.137Z,1024.62
2019-03-19T10:54:24.140Z,1024.62
2019-03-19T10:55:24.115Z,1024.64
2019-03-19T10:56:24.103Z,1024.59
2019-03-19T10:57:24.093Z,1024.64
2019-03-19T10:58:24.083Z,1024.66
2019-03-19T10:59:24.071Z,1024.66
2019-03-19T11:00:24.069Z,1024.66
2019-03-19T11:01:24.048Z,1024.63
2019-03-19T11:02:24.037Z,1024.66
2019-03-19T11:03:24.026Z,1024.63
2019-03-19T11:04:24.015Z,1024.63
2019-03-19T11:05:24.004Z,1024.65
2019-03-19T11:06:24.008Z,1024.63
2019-03-19T11:07:23.983Z,1024.64
2019-03-19T11:08:23.974Z,1024.57
2019-03-19T11:09:23.963Z,1024.50
2019-03-19T11:10:23.952Z,1024.51
2019-03-19T11:11:23.941Z,1024.43
2019-03-19T11:12:23.940Z,1024.44
2019-03-19T11:13:23.918Z,1024.50
2019-03-19T11:14:23.908Z,1024.43
2019-03-19T11:15:23.900Z,1024.44
2019-03-19T11:16:23.890Z,1024.46
2019-03-19T11:17:23.875Z,1024.42
2019-03-19T11:18:23.888Z,1024.43
2019-03-19T11:19:23.855Z,1024.44
2019-03-19T11:20:23.846Z,1024.50
2019-03-19T11:21:23.833Z,1024.51
2019-03-19T11:22:23.822Z,1024.55
2019-03-19T11:23:23.810Z,1024.56
2019-03-19T11:24:23.812Z,1024.53
2019-03-19T11:25:23.791Z,1024.48
2019-03-19T11:26:23.778Z,1024.49
2019-03-19T11:27:23.783Z,1024.50
2019-03-19T11:28:23.764Z,1024.51
2019-03-19T11:29:23.744Z,1024.50
2019-03-19T11:30:23.750Z,1024.51
2019-03-19T11:31:23.722Z,1024.56
2019-03-19T11:32:23.711Z,1024.61
2019-03-19T11:33:23.701Z,1024.55
2019-03-19T11:34:23.689Z,1024.61
2019-03-19T11:35:23.678Z,1024.60
2019-03-19T11:36:23.678Z,1024.59
2019-03-19T11:37:23.657Z,1024.58
2019-03-19T11:38:23.648Z,1024.63
2019-03-19T11:39:23.635Z,1024.59
2019-03-19T11:40:25.773Z,1024.59
2019-03-19T11:41:23.614Z,1024.67
2019-03-19T11:42:23.616Z,1024.58
2019-03-19T11:43:23.599Z,1024.58
2019-03-19T11:44:23.580Z,1024.61
2019-03-19T11:45:23.570Z,1024.59
2019-03-19T11:46:23.558Z,1024.59
2019-03-19T11:47:23.548Z,1024.61
2019-03-19T11:48:23.557Z,1024.60
2019-03-19T11:49:23.526Z,1024.63
2019-03-19T11:50:23.516Z,1024.64
2019-03-19T11:51:23.503Z,1024.67
2019-03-19T11:52:23.493Z,1024.65
2019-03-19T11:53:23.482Z,1024.62
2019-03-19T11:54:23.481Z,1024.69
2019-03-19T11:55:23.463Z,1024.63
2019-03-19T11:56:23.455Z,1024.66
2019-03-19T11:57:23.441Z,1024.63
2019-03-19T11:58:23.427Z,1024.59
2019-03-19T11:59:23.417Z,1024.60
2019-03-19T12:00:23.416Z,1024.58
2019-03-19T12:01:23.396Z,1024.59
2019-03-19T12:02:26.119Z,1024.59
2019-03-19T12:03:23.374Z,1024.64
2019-03-19T12:04:23.369Z,1024.65
2019-03-19T12:05:23.353Z,1024.62